sensor_id;sensor_type;location;lat;lon;timestamp;P1;durP1;ratioP1;P2;durP2;ratioP2
20611;SDS011;10465;42.686;23.364;2022-07-19T00:00:20;5.07;;;3.80;;
20611;SDS011;10465;42.686;23.364;2022-07-19T00:02:48;8.27;;;3.50;;
20611;SDS011;10465;42.686;23.364;2022-07-19T00:05:14;5.05;;;3.55;;
20611;SDS011;10465;42.686;23.364;2022-07-19T00:07:40;4.10;;;3.25;;
20611;SDS011;10465;42.686;23.364;2022-07-19T00:10:07;6.32;;;3.90;;
20611;SDS011;10465;42.686;23.364;2022-07-19T00:12:33;6.15;;;3.22;;
20611;SDS011;10465;42.686;23.364;2022-07-19T00:14:59;5.22;;;3.92;;
20611;SDS011;10465;42.686;23.364;2022-07-19T00:17:25;4.75;;;3.55;;
20611;SDS011;10465;42.686;23.364;2022-07-19T00:19:50;4.97;;;3.50;;
20611;SDS011;10465;42.686;23.364;2022-07-19T00:22:16;8.07;;;3.88;;
20611;SDS011;10465;42.686;23.364;2022-07-19T00:24:41;4.43;;;3.55;;
20611;SDS011;10465;42.686;23.364;2022-07-19T00:27:07;5.88;;;3.67;;
20611;SDS011;10465;42.686;23.364;2022-07-19T00:29:32;3.97;;;3.58;;
20611;SDS011;10465;42.686;23.364;2022-07-19T00:31:58;8.85;;;3.33;;
20611;SDS011;10465;42.686;23.364;2022-07-19T00:34:23;4.72;;;3.20;;
20611;SDS011;10465;42.686;23.364;2022-07-19T00:36:49;5.43;;;3.88;;
20611;SDS011;10465;42.686;23.364;2022-07-19T00:39:14;5.07;;;3.05;;
20611;SDS011;10465;42.686;23.364;2022-07-19T00:41:40;5.43;;;3.55;;
20611;SDS011;10465;42.686;23.364;2022-07-19T00:44:07;5.15;;;3.30;;
20611;SDS011;10465;42.686;23.364;2022-07-19T00:46:34;5.50;;;3.28;;
20611;SDS011;10465;42.686;23.364;2022-07-19T00:48:59;6.25;;;3.53;;
20611;SDS011;10465;42.686;23.364;2022-07-19T00:51:25;7.78;;;3.45;;
20611;SDS011;10465;42.686;23.364;2022-07-19T00:53:50;5.22;;;3.40;;
20611;SDS011;10465;42.686;23.364;2022-07-19T00:56:17;4.82;;;3.53;;
20611;SDS011;10465;42.686;23.364;2022-07-19T00:58:44;6.78;;;3.38;;
20611;SDS011;10465;42.686;23.364;2022-07-19T01:01:11;6.30;;;3.80;;
20611;SDS011;10465;42.686;23.364;2022-07-19T01:03:38;3.88;;;3.05;;
20611;SDS011;10465;42.686;23.364;2022-07-19T01:06:05;5.47;;;3.30;;
20611;SDS011;10465;42.686;23.364;2022-07-19T01:08:31;4.85;;;3.53;;
20611;SDS011;10465;42.686;23.364;2022-07-19T01:10:56;6.93;;;3.53;;
20611;SDS011;10465;42.686;23.364;2022-07-19T01:13:23;4.90;;;3.67;;
20611;SDS011;10465;42.686;23.364;2022-07-19T01:15:48;4.03;;;3.45;;
20611;SDS011;10465;42.686;23.364;2022-07-19T01:18:14;3.60;;;3.30;;
20611;SDS011;10465;42.686;23.364;2022-07-19T01:20:39;3.53;;;3.00;;
20611;SDS011;10465;42.686;23.364;2022-07-19T01:23:05;6.35;;;3.30;;
20611;SDS011;10465;42.686;23.364;2022-07-19T01:25:32;4.57;;;3.35;;
20611;SDS011;10465;42.686;23.364;2022-07-19T01:28:01;5.53;;;2.80;;
20611;SDS011;10465;42.686;23.364;2022-07-19T01:30:29;4.32;;;3.15;;
20611;SDS011;10465;42.686;23.364;2022-07-19T01:32:54;4.28;;;3.00;;
20611;SDS011;10465;42.686;23.364;2022-07-19T01:35:21;5.57;;;3.00;;
20611;SDS011;10465;42.686;23.364;2022-07-19T01:37:47;3.72;;;3.00;;
20611;SDS011;10465;42.686;23.364;2022-07-19T01:40:15;5.90;;;3.13;;
20611;SDS011;10465;42.686;23.364;2022-07-19T01:42:42;3.80;;;2.83;;
20611;SDS011;10465;42.686;23.364;2022-07-19T01:45:08;4.60;;;3.00;;
20611;SDS011;10465;42.686;23.364;2022-07-19T01:47:34;6.00;;;2.70;;
20611;SDS011;10465;42.686;23.364;2022-07-19T01:50:00;3.88;;;2.83;;
20611;SDS011;10465;42.686;23.364;2022-07-19T01:52:26;4.20;;;3.20;;
20611;SDS011;10465;42.686;23.364;2022-07-19T01:54:51;4.15;;;2.60;;
20611;SDS011;10465;42.686;23.364;2022-07-19T01:57:17;5.90;;;2.90;;
20611;SDS011;10465;42.686;23.364;2022-07-19T01:59:42;4.88;;;2.65;;
20611;SDS011;10465;42.686;23.364;2022-07-19T02:02:08;5.60;;;2.90;;
20611;SDS011;10465;42.686;23.364;2022-07-19T02:04:33;3.25;;;2.95;;
20611;SDS011;10465;42.686;23.364;2022-07-19T02:06:59;6.10;;;2.85;;
20611;SDS011;10465;42.686;23.364;2022-07-19T02:09:25;5.20;;;3.10;;
20611;SDS011;10465;42.686;23.364;2022-07-19T02:11:51;4.50;;;3.65;;
20611;SDS011;10465;42.686;23.364;2022-07-19T02:14:16;4.30;;;3.17;;
20611;SDS011;10465;42.686;23.364;2022-07-19T02:16:42;4.22;;;3.17;;
20611;SDS011;10465;42.686;23.364;2022-07-19T02:19:08;7.47;;;3.17;;
20611;SDS011;10465;42.686;23.364;2022-07-19T02:21:35;4.43;;;3.13;;
20611;SDS011;10465;42.686;23.364;2022-07-19T02:24:01;7.85;;;3.03;;
20611;SDS011;10465;42.686;23.364;2022-07-19T02:26:28;7.03;;;2.95;;
20611;SDS011;10465;42.686;23.364;2022-07-19T02:28:53;5.60;;;2.85;;
20611;SDS011;10465;42.686;23.364;2022-07-19T02:31:19;6.35;;;3.22;;
20611;SDS011;10465;42.686;23.364;2022-07-19T02:33:45;5.05;;;2.90;;
20611;SDS011;10465;42.686;23.364;2022-07-19T02:36:11;4.60;;;2.70;;
20611;SDS011;10465;42.686;23.364;2022-07-19T02:38:36;5.13;;;2.92;;
20611;SDS011;10465;42.686;23.364;2022-07-19T02:41:02;4.07;;;3.22;;
20611;SDS011;10465;42.686;23.364;2022-07-19T02:43:28;4.82;;;3.17;;
20611;SDS011;10465;42.686;23.364;2022-07-19T02:45:53;4.15;;;3.22;;
20611;SDS011;10465;42.686;23.364;2022-07-19T02:48:19;5.28;;;3.58;;
20611;SDS011;10465;42.686;23.364;2022-07-19T02:50:45;4.15;;;2.97;;
20611;SDS011;10465;42.686;23.364;2022-07-19T02:53:10;10.23;;;3.63;;
20611;SDS011;10465;42.686;23.364;2022-07-19T02:55:36;6.93;;;3.95;;
20611;SDS011;10465;42.686;23.364;2022-07-19T02:58:01;4.40;;;3.30;;
20611;SDS011;10465;42.686;23.364;2022-07-19T03:00:27;5.53;;;3.53;;
20611;SDS011;10465;42.686;23.364;2022-07-19T03:02:53;6.10;;;3.95;;
20611;SDS011;10465;42.686;23.364;2022-07-19T03:05:18;5.38;;;4.00;;
20611;SDS011;10465;42.686;23.364;2022-07-19T03:07:44;7.00;;;3.83;;
20611;SDS011;10465;42.686;23.364;2022-07-19T03:10:10;5.63;;;3.95;;
20611;SDS011;10465;42.686;23.364;2022-07-19T03:12:35;7.38;;;4.07;;
20611;SDS011;10465;42.686;23.364;2022-07-19T03:15:01;8.70;;;3.50;;
20611;SDS011;10465;42.686;23.364;2022-07-19T03:17:27;8.75;;;4.35;;
20611;SDS011;10465;42.686;23.364;2022-07-19T03:19:52;6.90;;;4.18;;
20611;SDS011;10465;42.686;23.364;2022-07-19T03:22:17;6.47;;;3.83;;
20611;SDS011;10465;42.686;23.364;2022-07-19T03:24:43;4.35;;;3.50;;
20611;SDS011;10465;42.686;23.364;2022-07-19T03:27:09;5.80;;;3.90;;
20611;SDS011;10465;42.686;23.364;2022-07-19T03:29:34;8.23;;;4.25;;
20611;SDS011;10465;42.686;23.364;2022-07-19T03:32:00;8.00;;;4.05;;
20611;SDS011;10465;42.686;23.364;2022-07-19T03:34:26;6.10;;;3.72;;
20611;SDS011;10465;42.686;23.364;2022-07-19T03:36:53;5.43;;;3.70;;
20611;SDS011;10465;42.686;23.364;2022-07-19T03:39:19;5.97;;;4.03;;
20611;SDS011;10465;42.686;23.364;2022-07-19T03:41:45;7.90;;;4.07;;
20611;SDS011;10465;42.686;23.364;2022-07-19T03:44:10;8.07;;;4.55;;
20611;SDS011;10465;42.686;23.364;2022-07-19T03:46:35;6.00;;;4.18;;
20611;SDS011;10465;42.686;23.364;2022-07-19T03:49:01;6.65;;;4.40;;
20611;SDS011;10465;42.686;23.364;2022-07-19T03:51:26;8.20;;;4.35;;
20611;SDS011;10465;42.686;23.364;2022-07-19T03:53:52;6.53;;;4.18;;
20611;SDS011;10465;42.686;23.364;2022-07-19T03:56:17;5.85;;;4.20;;
20611;SDS011;10465;42.686;23.364;2022-07-19T03:58:43;6.47;;;3.58;;
20611;SDS011;10465;42.686;23.364;2022-07-19T04:01:09;8.50;;;4.13;;
20611;SDS011;10465;42.686;23.364;2022-07-19T04:03:35;7.45;;;4.15;;
20611;SDS011;10465;42.686;23.364;2022-07-19T04:06:03;7.47;;;4.57;;
20611;SDS011;10465;42.686;23.364;2022-07-19T04:08:30;5.93;;;4.15;;
20611;SDS011;10465;42.686;23.364;2022-07-19T04:10:55;5.30;;;3.70;;
20611;SDS011;10465;42.686;23.364;2022-07-19T04:13:20;6.80;;;3.72;;
20611;SDS011;10465;42.686;23.364;2022-07-19T04:15:46;5.50;;;3.70;;
20611;SDS011;10465;42.686;23.364;2022-07-19T04:18:11;6.07;;;3.80;;
20611;SDS011;10465;42.686;23.364;2022-07-19T04:20:37;7.57;;;3.88;;
20611;SDS011;10465;42.686;23.364;2022-07-19T04:23:02;8.80;;;3.60;;
20611;SDS011;10465;42.686;23.364;2022-07-19T04:25:28;6.75;;;4.72;;
20611;SDS011;10465;42.686;23.364;2022-07-19T04:27:54;7.30;;;4.03;;
20611;SDS011;10465;42.686;23.364;2022-07-19T04:30:19;5.03;;;3.90;;
20611;SDS011;10465;42.686;23.364;2022-07-19T04:32:45;5.50;;;3.88;;
20611;SDS011;10465;42.686;23.364;2022-07-19T04:35:10;6.80;;;4.70;;
20611;SDS011;10465;42.686;23.364;2022-07-19T04:37:36;9.80;;;4.07;;
20611;SDS011;10465;42.686;23.364;2022-07-19T04:40:02;6.47;;;4.38;;
20611;SDS011;10465;42.686;23.364;2022-07-19T04:42:28;7.50;;;4.28;;
20611;SDS011;10465;42.686;23.364;2022-07-19T04:44:53;7.53;;;3.88;;
20611;SDS011;10465;42.686;23.364;2022-07-19T04:47:19;5.53;;;3.40;;
20611;SDS011;10465;42.686;23.364;2022-07-19T04:49:44;4.95;;;3.55;;
20611;SDS011;10465;42.686;23.364;2022-07-19T04:52:09;5.65;;;3.42;;
20611;SDS011;10465;42.686;23.364;2022-07-19T04:54:35;7.00;;;3.20;;
20611;SDS011;10465;42.686;23.364;2022-07-19T04:57:00;5.63;;;3.00;;
20611;SDS011;10465;42.686;23.364;2022-07-19T04:59:26;4.95;;;2.80;;
20611;SDS011;10465;42.686;23.364;2022-07-19T05:01:51;5.68;;;3.03;;
20611;SDS011;10465;42.686;23.364;2022-07-19T05:04:17;4.30;;;2.83;;
20611;SDS011;10465;42.686;23.364;2022-07-19T05:06:43;3.75;;;2.47;;
20611;SDS011;10465;42.686;23.364;2022-07-19T05:09:09;11.07;;;6.72;;
20611;SDS011;10465;42.686;23.364;2022-07-19T05:11:35;6.60;;;4.32;;
20611;SDS011;10465;42.686;23.364;2022-07-19T05:14:00;4.95;;;3.80;;
20611;SDS011;10465;42.686;23.364;2022-07-19T05:16:26;4.85;;;3.08;;
20611;SDS011;10465;42.686;23.364;2022-07-19T05:18:51;4.93;;;2.63;;
20611;SDS011;10465;42.686;23.364;2022-07-19T05:21:17;5.45;;;2.40;;
20611;SDS011;10465;42.686;23.364;2022-07-19T05:23:42;5.93;;;2.95;;
20611;SDS011;10465;42.686;23.364;2022-07-19T05:26:08;3.33;;;2.70;;
20611;SDS011;10465;42.686;23.364;2022-07-19T05:28:33;7.15;;;2.60;;
20611;SDS011;10465;42.686;23.364;2022-07-19T05:30:59;3.80;;;2.67;;
20611;SDS011;10465;42.686;23.364;2022-07-19T05:33:26;6.28;;;2.50;;
20611;SDS011;10465;42.686;23.364;2022-07-19T05:35:52;5.05;;;2.63;;
20611;SDS011;10465;42.686;23.364;2022-07-19T05:38:17;7.07;;;4.40;;
20611;SDS011;10465;42.686;23.364;2022-07-19T05:40:43;6.68;;;3.42;;
20611;SDS011;10465;42.686;23.364;2022-07-19T05:43:08;6.05;;;3.50;;
20611;SDS011;10465;42.686;23.364;2022-07-19T05:45:34;9.77;;;3.72;;
20611;SDS011;10465;42.686;23.364;2022-07-19T05:47:59;5.13;;;4.63;;
20611;SDS011;10465;42.686;23.364;2022-07-19T05:50:25;5.82;;;4.50;;
20611;SDS011;10465;42.686;23.364;2022-07-19T05:52:50;7.45;;;5.15;;
20611;SDS011;10465;42.686;23.364;2022-07-19T05:55:16;6.72;;;4.95;;
20611;SDS011;10465;42.686;23.364;2022-07-19T05:57:41;5.15;;;3.72;;
20611;SDS011;10465;42.686;23.364;2022-07-19T06:00:07;11.25;;;4.82;;
20611;SDS011;10465;42.686;23.364;2022-07-19T06:02:33;5.25;;;2.90;;
20611;SDS011;10465;42.686;23.364;2022-07-19T06:04:59;5.97;;;4.20;;
20611;SDS011;10465;42.686;23.364;2022-07-19T06:07:24;6.93;;;3.67;;
20611;SDS011;10465;42.686;23.364;2022-07-19T06:09:49;3.85;;;3.10;;
20611;SDS011;10465;42.686;23.364;2022-07-19T06:12:15;6.18;;;5.00;;
20611;SDS011;10465;42.686;23.364;2022-07-19T06:14:40;5.43;;;4.85;;
20611;SDS011;10465;42.686;23.364;2022-07-19T06:17:06;5.30;;;3.17;;
20611;SDS011;10465;42.686;23.364;2022-07-19T06:19:32;5.00;;;2.42;;
20611;SDS011;10465;42.686;23.364;2022-07-19T06:21:57;5.95;;;2.50;;
20611;SDS011;10465;42.686;23.364;2022-07-19T06:24:23;7.90;;;4.47;;
20611;SDS011;10465;42.686;23.364;2022-07-19T06:26:48;4.95;;;4.28;;
20611;SDS011;10465;42.686;23.364;2022-07-19T06:29:13;8.98;;;4.03;;
20611;SDS011;10465;42.686;23.364;2022-07-19T06:31:39;7.85;;;2.80;;
20611;SDS011;10465;42.686;23.364;2022-07-19T06:34:05;8.98;;;3.40;;
20611;SDS011;10465;42.686;23.364;2022-07-19T06:36:30;6.03;;;3.10;;
20611;SDS011;10465;42.686;23.364;2022-07-19T06:38:55;6.35;;;3.33;;
20611;SDS011;10465;42.686;23.364;2022-07-19T06:41:21;4.28;;;3.53;;
20611;SDS011;10465;42.686;23.364;2022-07-19T06:43:46;3.47;;;2.90;;
20611;SDS011;10465;42.686;23.364;2022-07-19T06:46:12;6.25;;;2.75;;
20611;SDS011;10465;42.686;23.364;2022-07-19T06:48:38;3.03;;;2.60;;
20611;SDS011;10465;42.686;23.364;2022-07-19T06:51:05;6.43;;;2.90;;
20611;SDS011;10465;42.686;23.364;2022-07-19T06:53:31;4.78;;;2.90;;
20611;SDS011;10465;42.686;23.364;2022-07-19T06:55:57;5.15;;;3.10;;
20611;SDS011;10465;42.686;23.364;2022-07-19T06:58:23;6.60;;;3.22;;
20611;SDS011;10465;42.686;23.364;2022-07-19T07:00:48;3.33;;;2.63;;
20611;SDS011;10465;42.686;23.364;2022-07-19T07:03:14;4.63;;;2.50;;
20611;SDS011;10465;42.686;23.364;2022-07-19T07:05:42;5.32;;;2.78;;
20611;SDS011;10465;42.686;23.364;2022-07-19T07:08:08;4.65;;;2.70;;
20611;SDS011;10465;42.686;23.364;2022-07-19T07:10:33;4.75;;;2.97;;
20611;SDS011;10465;42.686;23.364;2022-07-19T07:12:59;3.05;;;2.33;;
20611;SDS011;10465;42.686;23.364;2022-07-19T07:15:24;5.05;;;2.78;;
20611;SDS011;10465;42.686;23.364;2022-07-19T07:17:50;3.88;;;2.95;;
20611;SDS011;10465;42.686;23.364;2022-07-19T07:20:15;5.40;;;3.22;;
20611;SDS011;10465;42.686;23.364;2022-07-19T07:22:41;4.60;;;2.70;;
20611;SDS011;10465;42.686;23.364;2022-07-19T07:25:06;4.97;;;2.80;;
20611;SDS011;10465;42.686;23.364;2022-07-19T07:27:32;6.55;;;2.65;;
20611;SDS011;10465;42.686;23.364;2022-07-19T07:29:58;6.72;;;3.88;;
20611;SDS011;10465;42.686;23.364;2022-07-19T07:32:23;3.50;;;2.53;;
20611;SDS011;10465;42.686;23.364;2022-07-19T07:34:51;4.63;;;2.63;;
20611;SDS011;10465;42.686;23.364;2022-07-19T07:37:17;4.60;;;3.08;;
20611;SDS011;10465;42.686;23.364;2022-07-19T07:39:43;5.20;;;2.95;;
20611;SDS011;10465;42.686;23.364;2022-07-19T07:42:08;4.72;;;2.83;;
20611;SDS011;10465;42.686;23.364;2022-07-19T07:44:34;4.72;;;2.72;;
20611;SDS011;10465;42.686;23.364;2022-07-19T07:46:59;3.60;;;2.78;;
20611;SDS011;10465;42.686;23.364;2022-07-19T07:49:25;3.55;;;2.83;;
20611;SDS011;10465;42.686;23.364;2022-07-19T07:51:51;7.68;;;2.72;;
20611;SDS011;10465;42.686;23.364;2022-07-19T07:54:16;3.80;;;2.47;;
20611;SDS011;10465;42.686;23.364;2022-07-19T07:56:42;4.45;;;2.55;;
20611;SDS011;10465;42.686;23.364;2022-07-19T07:59:07;4.32;;;2.90;;
20611;SDS011;10465;42.686;23.364;2022-07-19T08:01:33;4.22;;;2.65;;
20611;SDS011;10465;42.686;23.364;2022-07-19T08:03:59;6.82;;;2.60;;
20611;SDS011;10465;42.686;23.364;2022-07-19T08:06:24;3.78;;;2.47;;
20611;SDS011;10465;42.686;23.364;2022-07-19T08:08:50;4.25;;;3.10;;
20611;SDS011;10465;42.686;23.364;2022-07-19T08:11:15;3.67;;;2.35;;
20611;SDS011;10465;42.686;23.364;2022-07-19T08:13:41;2.95;;;2.35;;
20611;SDS011;10465;42.686;23.364;2022-07-19T08:16:06;3.28;;;2.10;;
20611;SDS011;10465;42.686;23.364;2022-07-19T08:18:32;2.95;;;2.20;;
20611;SDS011;10465;42.686;23.364;2022-07-19T08:20:58;2.50;;;2.30;;
20611;SDS011;10465;42.686;23.364;2022-07-19T08:23:24;2.47;;;2.20;;
20611;SDS011;10465;42.686;23.364;2022-07-19T08:25:49;3.03;;;2.30;;
20611;SDS011;10465;42.686;23.364;2022-07-19T08:28:15;2.55;;;2.00;;
20611;SDS011;10465;42.686;23.364;2022-07-19T08:30:40;5.25;;;2.47;;
20611;SDS011;10465;42.686;23.364;2022-07-19T08:33:06;3.33;;;2.60;;
20611;SDS011;10465;42.686;23.364;2022-07-19T08:35:33;5.45;;;2.00;;
20611;SDS011;10465;42.686;23.364;2022-07-19T08:38:00;2.20;;;2.00;;
20611;SDS011;10465;42.686;23.364;2022-07-19T08:40:26;3.80;;;2.25;;
20611;SDS011;10465;42.686;23.364;2022-07-19T08:42:51;5.50;;;2.42;;
20611;SDS011;10465;42.686;23.364;2022-07-19T08:45:18;2.33;;;2.08;;
20611;SDS011;10465;42.686;23.364;2022-07-19T08:47:47;3.72;;;2.35;;
20611;SDS011;10465;42.686;23.364;2022-07-19T08:50:13;3.72;;;2.20;;
20611;SDS011;10465;42.686;23.364;2022-07-19T08:52:39;3.15;;;2.60;;
20611;SDS011;10465;42.686;23.364;2022-07-19T08:55:05;3.42;;;2.30;;
20611;SDS011;10465;42.686;23.364;2022-07-19T08:57:31;2.80;;;2.28;;
20611;SDS011;10465;42.686;23.364;2022-07-19T09:00:15;2.58;;;2.20;;
20611;SDS011;10465;42.686;23.364;2022-07-19T09:02:50;4.63;;;3.30;;
20611;SDS011;10465;42.686;23.364;2022-07-19T09:05:26;2.75;;;2.55;;
20611;SDS011;10465;42.686;23.364;2022-07-19T09:08:26;2.78;;;2.13;;
20611;SDS011;10465;42.686;23.364;2022-07-19T09:10:45;7.18;;;2.38;;
20611;SDS011;10465;42.686;23.364;2022-07-19T09:13:47;3.83;;;2.20;;
20611;SDS011;10465;42.686;23.364;2022-07-19T09:16:14;3.45;;;2.45;;
20611;SDS011;10465;42.686;23.364;2022-07-19T09:18:39;5.13;;;2.60;;
20611;SDS011;10465;42.686;23.364;2022-07-19T09:21:05;3.13;;;2.28;;
20611;SDS011;10465;42.686;23.364;2022-07-19T09:23:32;4.15;;;2.30;;
20611;SDS011;10465;42.686;23.364;2022-07-19T09:26:02;3.13;;;2.28;;
20611;SDS011;10465;42.686;23.364;2022-07-19T09:28:29;3.53;;;2.85;;
20611;SDS011;10465;42.686;23.364;2022-07-19T09:30:58;4.13;;;2.30;;
20611;SDS011;10465;42.686;23.364;2022-07-19T09:33:28;2.75;;;2.35;;
20611;SDS011;10465;42.686;23.364;2022-07-19T09:36:03;6.35;;;2.28;;
20611;SDS011;10465;42.686;23.364;2022-07-19T09:38:36;2.83;;;1.95;;
20611;SDS011;10465;42.686;23.364;2022-07-19T09:51:34;3.58;;;2.70;;
20611;SDS011;10465;42.686;23.364;2022-07-19T09:54:02;3.45;;;2.50;;
20611;SDS011;10465;42.686;23.364;2022-07-19T09:56:29;3.67;;;2.30;;
20611;SDS011;10465;42.686;23.364;2022-07-19T09:58:56;5.78;;;2.80;;
20611;SDS011;10465;42.686;23.364;2022-07-19T10:01:23;5.55;;;2.78;;
20611;SDS011;10465;42.686;23.364;2022-07-19T10:03:50;3.45;;;3.03;;
20611;SDS011;10465;42.686;23.364;2022-07-19T10:06:19;2.45;;;2.25;;
20611;SDS011;10465;42.686;23.364;2022-07-19T10:08:45;5.82;;;2.40;;
20611;SDS011;10465;42.686;23.364;2022-07-19T10:11:11;4.72;;;2.67;;
20611;SDS011;10465;42.686;23.364;2022-07-19T10:13:38;4.38;;;2.35;;
20611;SDS011;10465;42.686;23.364;2022-07-19T10:16:06;4.93;;;2.55;;
20611;SDS011;10465;42.686;23.364;2022-07-19T10:18:39;4.70;;;2.70;;
20611;SDS011;10465;42.686;23.364;2022-07-19T10:21:16;3.85;;;2.50;;
20611;SDS011;10465;42.686;23.364;2022-07-19T10:23:49;5.30;;;4.60;;
20611;SDS011;10465;42.686;23.364;2022-07-19T10:26:35;4.70;;;2.95;;
20611;SDS011;10465;42.686;23.364;2022-07-19T10:31:34;4.28;;;2.63;;
20611;SDS011;10465;42.686;23.364;2022-07-19T10:34:05;2.58;;;2.38;;
20611;SDS011;10465;42.686;23.364;2022-07-19T10:36:36;3.38;;;2.47;;
20611;SDS011;10465;42.686;23.364;2022-07-19T10:50:08;3.28;;;2.45;;
20611;SDS011;10465;42.686;23.364;2022-07-19T10:52:42;3.03;;;2.60;;
20611;SDS011;10465;42.686;23.364;2022-07-19T10:57:48;3.70;;;3.22;;
20611;SDS011;10465;42.686;23.364;2022-07-19T11:00:16;4.10;;;2.97;;
20611;SDS011;10465;42.686;23.364;2022-07-19T11:02:50;3.08;;;2.40;;
20611;SDS011;10465;42.686;23.364;2022-07-19T11:07:52;3.20;;;2.40;;
20611;SDS011;10465;42.686;23.364;2022-07-19T11:12:50;4.30;;;2.50;;
20611;SDS011;10465;42.686;23.364;2022-07-19T11:15:15;4.38;;;2.70;;
20611;SDS011;10465;42.686;23.364;2022-07-19T11:17:51;3.97;;;2.50;;
20611;SDS011;10465;42.686;23.364;2022-07-19T11:20:17;3.53;;;2.55;;
20611;SDS011;10465;42.686;23.364;2022-07-19T11:22:45;3.58;;;2.53;;
20611;SDS011;10465;42.686;23.364;2022-07-19T11:25:12;4.57;;;2.63;;
20611;SDS011;10465;42.686;23.364;2022-07-19T11:27:43;3.35;;;2.65;;
20611;SDS011;10465;42.686;23.364;2022-07-19T11:30:11;4.88;;;2.67;;
20611;SDS011;10465;42.686;23.364;2022-07-19T11:32:38;3.45;;;2.47;;
20611;SDS011;10465;42.686;23.364;2022-07-19T11:35:07;4.75;;;2.65;;
20611;SDS011;10465;42.686;23.364;2022-07-19T11:37:35;2.78;;;2.40;;
20611;SDS011;10465;42.686;23.364;2022-07-19T11:40:03;5.00;;;2.58;;
20611;SDS011;10465;42.686;23.364;2022-07-19T11:42:31;3.55;;;2.60;;
20611;SDS011;10465;42.686;23.364;2022-07-19T11:44:59;3.83;;;2.20;;
20611;SDS011;10465;42.686;23.364;2022-07-19T11:47:46;2.80;;;2.45;;
20611;SDS011;10465;42.686;23.364;2022-07-19T11:50:20;2.92;;;2.45;;
20611;SDS011;10465;42.686;23.364;2022-07-19T11:55:16;3.20;;;2.60;;
20611;SDS011;10465;42.686;23.364;2022-07-19T11:57:42;3.55;;;2.60;;
20611;SDS011;10465;42.686;23.364;2022-07-19T12:00:09;2.30;;;2.10;;
20611;SDS011;10465;42.686;23.364;2022-07-19T12:05:24;2.60;;;2.40;;
20611;SDS011;10465;42.686;23.364;2022-07-19T12:07:52;3.60;;;1.88;;
20611;SDS011;10465;42.686;23.364;2022-07-19T12:13:11;9.27;;;2.55;;
20611;SDS011;10465;42.686;23.364;2022-07-19T12:15:57;3.40;;;2.22;;
20611;SDS011;10465;42.686;23.364;2022-07-19T12:26:44;6.93;;;2.90;;
20611;SDS011;10465;42.686;23.364;2022-07-19T12:31:58;3.13;;;2.83;;
20611;SDS011;10465;42.686;23.364;2022-07-19T12:34:29;4.82;;;2.28;;
20611;SDS011;10465;42.686;23.364;2022-07-19T12:40:23;3.28;;;2.17;;
20611;SDS011;10465;42.686;23.364;2022-07-19T12:42:52;5.20;;;2.22;;
20611;SDS011;10465;42.686;23.364;2022-07-19T12:45:24;6.43;;;2.42;;
20611;SDS011;10465;42.686;23.364;2022-07-19T12:47:51;4.13;;;2.40;;
20611;SDS011;10465;42.686;23.364;2022-07-19T12:52:48;2.10;;;1.98;;
20611;SDS011;10465;42.686;23.364;2022-07-19T12:55:15;3.60;;;2.30;;
20611;SDS011;10465;42.686;23.364;2022-07-19T12:57:40;3.47;;;2.15;;
20611;SDS011;10465;42.686;23.364;2022-07-19T13:00:06;2.38;;;1.92;;
20611;SDS011;10465;42.686;23.364;2022-07-19T13:02:32;2.70;;;2.00;;
20611;SDS011;10465;42.686;23.364;2022-07-19T13:04:57;2.83;;;2.00;;
20611;SDS011;10465;42.686;23.364;2022-07-19T13:07:23;3.53;;;2.13;;
20611;SDS011;10465;42.686;23.364;2022-07-19T13:09:48;2.03;;;1.83;;
20611;SDS011;10465;42.686;23.364;2022-07-19T13:12:14;2.47;;;2.20;;
20611;SDS011;10465;42.686;23.364;2022-07-19T13:14:40;2.35;;;1.77;;
20611;SDS011;10465;42.686;23.364;2022-07-19T13:17:06;2.10;;;1.90;;
20611;SDS011;10465;42.686;23.364;2022-07-19T13:19:35;2.10;;;1.98;;
20611;SDS011;10465;42.686;23.364;2022-07-19T13:22:02;3.60;;;2.10;;
20611;SDS011;10465;42.686;23.364;2022-07-19T13:24:28;3.92;;;2.05;;
20611;SDS011;10465;42.686;23.364;2022-07-19T13:26:54;3.35;;;2.20;;
20611;SDS011;10465;42.686;23.364;2022-07-19T13:29:19;3.08;;;2.05;;
20611;SDS011;10465;42.686;23.364;2022-07-19T13:31:45;3.58;;;2.10;;
20611;SDS011;10465;42.686;23.364;2022-07-19T13:34:10;5.35;;;2.20;;
20611;SDS011;10465;42.686;23.364;2022-07-19T13:36:36;3.17;;;1.88;;
20611;SDS011;10465;42.686;23.364;2022-07-19T13:39:02;3.22;;;1.83;;
20611;SDS011;10465;42.686;23.364;2022-07-19T13:41:28;2.13;;;1.92;;
20611;SDS011;10465;42.686;23.364;2022-07-19T13:43:53;2.45;;;1.90;;
20611;SDS011;10465;42.686;23.364;2022-07-19T13:46:20;2.00;;;1.90;;
20611;SDS011;10465;42.686;23.364;2022-07-19T13:48:46;2.97;;;1.90;;
20611;SDS011;10465;42.686;23.364;2022-07-19T13:51:11;3.03;;;2.10;;
20611;SDS011;10465;42.686;23.364;2022-07-19T13:53:37;3.00;;;1.70;;
20611;SDS011;10465;42.686;23.364;2022-07-19T13:56:04;3.25;;;1.65;;
20611;SDS011;10465;42.686;23.364;2022-07-19T13:58:30;2.97;;;1.73;;
20611;SDS011;10465;42.686;23.364;2022-07-19T14:00:57;2.85;;;1.73;;
20611;SDS011;10465;42.686;23.364;2022-07-19T14:03:22;2.22;;;2.03;;
20611;SDS011;10465;42.686;23.364;2022-07-19T14:05:48;3.47;;;1.80;;
20611;SDS011;10465;42.686;23.364;2022-07-19T14:08:14;2.35;;;2.08;;
20611;SDS011;10465;42.686;23.364;2022-07-19T14:10:40;2.63;;;1.70;;
20611;SDS011;10465;42.686;23.364;2022-07-19T14:13:06;7.57;;;1.90;;
20611;SDS011;10465;42.686;23.364;2022-07-19T14:15:32;4.57;;;2.60;;
20611;SDS011;10465;42.686;23.364;2022-07-19T14:17:58;5.63;;;2.28;;
20611;SDS011;10465;42.686;23.364;2022-07-19T14:20:24;4.25;;;1.83;;
20611;SDS011;10465;42.686;23.364;2022-07-19T14:22:51;2.10;;;1.60;;
20611;SDS011;10465;42.686;23.364;2022-07-19T14:25:17;2.30;;;2.03;;
20611;SDS011;10465;42.686;23.364;2022-07-19T14:27:42;3.08;;;1.65;;
20611;SDS011;10465;42.686;23.364;2022-07-19T14:30:08;6.28;;;2.83;;
20611;SDS011;10465;42.686;23.364;2022-07-19T14:32:34;3.30;;;1.90;;
20611;SDS011;10465;42.686;23.364;2022-07-19T14:35:00;2.00;;;1.80;;
20611;SDS011;10465;42.686;23.364;2022-07-19T14:37:25;2.20;;;1.50;;
20611;SDS011;10465;42.686;23.364;2022-07-19T14:39:51;2.60;;;1.73;;
20611;SDS011;10465;42.686;23.364;2022-07-19T14:42:16;2.35;;;1.67;;
20611;SDS011;10465;42.686;23.364;2022-07-19T14:44:42;5.85;;;2.05;;
20611;SDS011;10465;42.686;23.364;2022-07-19T14:47:07;5.32;;;1.98;;
20611;SDS011;10465;42.686;23.364;2022-07-19T14:49:34;1.88;;;1.60;;
20611;SDS011;10465;42.686;23.364;2022-07-19T14:52:00;2.38;;;1.98;;
20611;SDS011;10465;42.686;23.364;2022-07-19T14:54:26;2.67;;;1.70;;
20611;SDS011;10465;42.686;23.364;2022-07-19T14:56:52;4.38;;;1.67;;
20611;SDS011;10465;42.686;23.364;2022-07-19T14:59:18;3.35;;;1.85;;
20611;SDS011;10465;42.686;23.364;2022-07-19T15:01:44;3.70;;;1.92;;
20611;SDS011;10465;42.686;23.364;2022-07-19T15:04:10;4.70;;;2.00;;
20611;SDS011;10465;42.686;23.364;2022-07-19T15:06:35;4.53;;;1.80;;
20611;SDS011;10465;42.686;23.364;2022-07-19T15:09:01;2.40;;;1.70;;
20611;SDS011;10465;42.686;23.364;2022-07-19T15:11:26;3.42;;;1.60;;
20611;SDS011;10465;42.686;23.364;2022-07-19T15:13:52;4.80;;;1.92;;
20611;SDS011;10465;42.686;23.364;2022-07-19T15:16:17;2.70;;;1.58;;
20611;SDS011;10465;42.686;23.364;2022-07-19T15:18:42;2.50;;;2.00;;
20611;SDS011;10465;42.686;23.364;2022-07-19T15:21:08;3.53;;;1.58;;
20611;SDS011;10465;42.686;23.364;2022-07-19T15:23:33;3.85;;;1.67;;
20611;SDS011;10465;42.686;23.364;2022-07-19T15:25:59;2.47;;;1.75;;